6R3

Cleveland Municipal Airport

Cleveland, Texas, USA
METAR K6R3 140715Z AUTO 28005KT 7SM OVC027 08/04 A2982 RMK AO2 T00810037
Observed Flight Rules
Dec-14 @ 07:15 UTC (34 minutes ago) Marginal Visual Flight Rules
Wind Visibility Clouds
280° at 5 knots 7 miles
  • Overcast at 2,700' AGL
Temperatures Readings
Current 8°C / 46°F
Dewpoint 4°C / 39°F
Humidity 76%
Altimeter 29.82" Hg
Pressure 1010 hPa
Elevation 46
METAR K6R3 140715Z AUTO 28005KT 7SM OVC027 08/04 A2982 RMK AO2 T00810037
Observed Flight Rules
Dec-14 @ 07:15 UTC
(34 minutes ago)
MVFR
Wind Visibility
280° at 5 knots 7 miles
Clouds
  • Overcast at 2,700' AGL
Temperature Dewpoint
8°C / 46°F 4°C / 39°F
Humidity Altimeter Pressure
76% 29.82" Hg 1010 hPa